Terminal Aerodrome Forecast
Issued by NWS

Home | Current Version | Previous Version | Text Only | Print | Product List | Glossary On
Versions: 1 2 3 4 5 6 7 8 9 10 11 12 13 14 15 16 17 18 19 20 21 22 23
000
FTAK31 PANC 061732
TAFATK
TAF
PATK 061732Z 0618/0718 VRB03KT P6SM SCT070 BKN120
     FM062000 19006KT P6SM SCT070 BKN120
     FM070300 VRB03KT P6SM SCT040 OVC080
     FM071000 VRB03KT 6SM -RA OVC020=

USA.gov is the U.S. government's official web portal to all federal, state and local government web resources and services.